createdAt,value
2022-12-08T00:00:28.829Z,79.64
2022-12-08T00:02:55.142Z,79.33
2022-12-08T00:05:40.227Z,79.41
2022-12-08T00:08:27.869Z,79.21
2022-12-08T00:10:53.889Z,78.95
2022-12-08T00:13:19.907Z,79.04
2022-12-08T00:15:46.425Z,79.13
2022-12-08T00:18:12.430Z,78.81
2022-12-08T00:20:38.630Z,78.82
2022-12-08T00:23:05.261Z,78.82
2022-12-08T00:25:50.825Z,78.92
2022-12-08T00:28:17.359Z,78.73
2022-12-08T00:30:43.339Z,78.37
2022-12-08T00:33:10.426Z,78.05
2022-12-08T00:35:42.761Z,77.80
2022-12-08T00:38:09.240Z,77.47
2022-12-08T00:40:37.517Z,77.22
2022-12-08T00:43:41.300Z,76.66
2022-12-08T00:46:08.009Z,76.66
2022-12-08T00:48:34.708Z,76.84
2022-12-08T00:55:00.643Z,76.63
2022-12-08T00:57:51.653Z,77.19
2022-12-08T01:00:18.195Z,76.81
2022-12-08T01:02:44.245Z,76.82
2022-12-08T01:05:10.798Z,76.96
2022-12-08T01:07:37.507Z,77.04
2022-12-08T01:10:04.234Z,77.06
2022-12-08T01:12:30.864Z,76.96
2022-12-08T01:15:02.052Z,77.11
2022-12-08T01:17:28.425Z,77.08
2022-12-08T01:19:54.464Z,76.97
2022-12-08T01:22:20.458Z,76.92
2022-12-08T01:24:46.556Z,76.93
2022-12-08T01:27:15.500Z,77.20
2022-12-08T01:29:41.785Z,77.18
2022-12-08T01:32:08.676Z,76.86
2022-12-08T01:34:35.513Z,77.01
2022-12-08T01:37:01.671Z,77.01
2022-12-08T01:39:29.397Z,76.77
2022-12-08T01:41:56.036Z,76.56
2022-12-08T01:44:22.017Z,76.69
2022-12-08T01:46:48.692Z,76.62
2022-12-08T01:49:23.133Z,76.59
2022-12-08T01:51:57.135Z,76.29
2022-12-08T01:54:27.758Z,76.46
2022-12-08T01:57:02.971Z,76.54
2022-12-08T01:59:32.449Z,76.51
2022-12-08T02:01:59.207Z,76.84
2022-12-08T02:04:25.576Z,76.55
2022-12-08T02:06:53.136Z,76.46
2022-12-08T02:09:21.210Z,76.52
2022-12-08T02:11:48.568Z,76.40
2022-12-08T02:14:15.002Z,76.47
2022-12-08T02:17:02.689Z,76.16
2022-12-08T02:19:50.683Z,76.30
2022-12-08T02:22:32.463Z,76.64
2022-12-08T02:25:10.613Z,76.20
2022-12-08T02:27:54.587Z,76.07
2022-12-08T02:30:35.055Z,76.10
2022-12-08T02:33:22.522Z,76.33
2022-12-08T02:36:02.052Z,76.28
2022-12-08T02:38:46.741Z,76.20
2022-12-08T02:41:36.915Z,76.22
2022-12-08T02:44:21.653Z,76.11
2022-12-08T02:46:55.269Z,76.36
2022-12-08T02:49:21.357Z,76.14
2022-12-08T02:51:47.337Z,75.89
2022-12-08T02:54:14.821Z,75.94
2022-12-08T02:57:06.806Z,75.85
2022-12-08T02:59:32.860Z,75.96
2022-12-08T03:02:23.077Z,75.91
2022-12-08T03:05:18.423Z,76.04
2022-12-08T03:08:02.450Z,76.42
2022-12-08T03:10:40.792Z,76.06
2022-12-08T03:13:17.455Z,75.92
2022-12-08T03:15:48.601Z,76.09
2022-12-08T03:18:18.472Z,76.25
2022-12-08T03:20:46.998Z,76.23
2022-12-08T03:23:15.481Z,76.52
2022-12-08T03:25:51.543Z,76.53
2022-12-08T03:28:18.122Z,76.45
2022-12-08T03:30:49.287Z,76.58
2022-12-08T03:33:24.457Z,76.49
2022-12-08T03:35:51.301Z,76.38
2022-12-08T03:38:18.053Z,76.52
2022-12-08T03:41:04.477Z,76.64
2022-12-08T03:43:30.500Z,76.55
2022-12-08T03:45:56.520Z,76.63
2022-12-08T03:48:23.018Z,76.87
2022-12-08T03:50:49.556Z,76.75
2022-12-08T03:53:15.679Z,76.70
2022-12-08T03:55:42.622Z,76.53
2022-12-08T03:58:09.158Z,76.64
2022-12-08T04:00:35.139Z,76.87
2022-12-08T04:03:01.219Z,76.64
2022-12-08T04:05:27.298Z,76.57
2022-12-08T04:07:57.039Z,76.70
2022-12-08T04:10:23.706Z,76.68
2022-12-08T04:12:50.418Z,76.74
2022-12-08T04:15:16.965Z,76.57
2022-12-08T04:17:43.447Z,76.49
2022-12-08T04:20:10.339Z,76.53
2022-12-08T04:22:36.308Z,76.60
2022-12-08T04:25:02.804Z,76.53
2022-12-08T04:27:28.824Z,76.68
2022-12-08T04:29:54.951Z,76.73
2022-12-08T04:32:20.980Z,76.51
2022-12-08T04:34:46.995Z,76.25
2022-12-08T04:37:13.029Z,76.33
2022-12-08T04:39:39.003Z,76.50
2022-12-08T04:42:05.161Z,76.49
2022-12-08T04:44:31.642Z,76.34
2022-12-08T04:46:57.657Z,76.29
2022-12-08T04:49:24.184Z,76.32
2022-12-08T04:51:50.178Z,76.44
2022-12-08T04:54:16.707Z,76.52
2022-12-08T04:56:42.736Z,76.36
2022-12-08T04:59:09.296Z,76.63
2022-12-08T05:01:35.850Z,76.74
2022-12-08T05:04:02.501Z,76.39
2022-12-08T05:06:28.548Z,76.43
2022-12-08T05:08:54.624Z,76.55
2022-12-08T05:11:20.677Z,76.58
2022-12-08T05:13:47.120Z,76.68
2022-12-08T05:16:15.183Z,77.00
2022-12-08T05:18:42.355Z,76.89
2022-12-08T05:21:09.955Z,76.63
2022-12-08T05:23:36.529Z,76.60
2022-12-08T05:26:02.606Z,76.49
2022-12-08T05:28:44.356Z,76.60
2022-12-08T05:31:15.405Z,76.75
2022-12-08T05:33:42.672Z,76.49
2022-12-08T05:36:11.149Z,76.21
2022-12-08T05:38:37.488Z,76.27
2022-12-08T05:41:05.623Z,76.46
2022-12-08T05:43:31.678Z,76.73
2022-12-08T05:45:58.095Z,76.57
2022-12-08T05:48:24.231Z,76.28
2022-12-08T05:50:51.838Z,76.52
2022-12-08T05:53:19.539Z,76.64
2022-12-08T05:55:47.813Z,76.27
2022-12-08T05:58:16.516Z,76.26
2022-12-08T06:00:42.838Z,76.32
2022-12-08T06:03:11.476Z,76.47
2022-12-08T06:05:37.523Z,76.62
2022-12-08T06:08:04.274Z,76.63
2022-12-08T06:10:30.341Z,76.50
2022-12-08T06:12:56.703Z,76.62
2022-12-08T06:15:22.783Z,76.55
2022-12-08T06:17:49.438Z,76.68
2022-12-08T06:20:15.958Z,76.67
2022-12-08T06:22:42.106Z,76.52
2022-12-08T06:25:10.337Z,76.69
2022-12-08T06:27:36.593Z,76.73
2022-12-08T06:30:04.855Z,76.67
2022-12-08T06:32:31.125Z,76.79
2022-12-08T06:34:57.398Z,76.69
2022-12-08T06:37:23.509Z,76.51
2022-12-08T06:39:50.004Z,76.55
2022-12-08T06:42:34.765Z,76.75
2022-12-08T06:45:01.012Z,76.62
2022-12-08T06:47:26.976Z,76.46
2022-12-08T06:49:53.074Z,76.05
2022-12-08T06:52:19.155Z,75.85
2022-12-08T06:54:45.125Z,75.79
2022-12-08T06:57:11.219Z,75.87
2022-12-08T06:59:38.750Z,75.82
2022-12-08T07:02:05.450Z,75.80
2022-12-08T07:04:31.991Z,75.87
2022-12-08T07:06:58.004Z,75.88
2022-12-08T07:09:24.016Z,75.54
2022-12-08T07:11:49.963Z,75.63
2022-12-08T07:14:16.143Z,75.98
2022-12-08T07:16:42.273Z,75.50
2022-12-08T07:19:08.806Z,75.57
2022-12-08T07:21:34.814Z,75.62
2022-12-08T07:24:01.020Z,75.65
2022-12-08T07:26:27.519Z,75.35
2022-12-08T07:28:53.806Z,75.32
2022-12-08T07:31:22.897Z,75.19
2022-12-08T07:33:49.876Z,75.38
2022-12-08T07:36:16.461Z,75.60
2022-12-08T07:38:43.668Z,75.59
2022-12-08T07:41:17.949Z,75.47
2022-12-08T07:43:45.563Z,75.35
2022-12-08T07:46:17.021Z,75.27
2022-12-08T07:48:43.764Z,75.46
2022-12-08T07:51:13.148Z,75.49
2022-12-08T07:53:42.814Z,75.15
2022-12-08T07:56:12.152Z,75.14
2022-12-08T07:58:38.931Z,75.06
2022-12-08T08:01:06.510Z,75.34
2022-12-08T08:03:33.022Z,75.56
2022-12-08T08:06:04.717Z,75.32
2022-12-08T08:08:31.424Z,75.64
2022-12-08T08:10:58.197Z,75.43
2022-12-08T08:13:24.219Z,74.95
2022-12-08T08:15:50.394Z,74.55
2022-12-08T08:18:16.968Z,74.59
2022-12-08T08:20:42.992Z,74.61
2022-12-08T08:23:09.326Z,74.72
2022-12-08T08:25:35.348Z,74.37
2022-12-08T08:28:01.318Z,73.68
2022-12-08T08:30:27.931Z,73.66
2022-12-08T08:32:53.956Z,73.58
2022-12-08T08:35:19.925Z,73.93
2022-12-08T08:37:49.197Z,73.73
2022-12-08T08:40:17.891Z,73.25
2022-12-08T08:42:43.902Z,73.33
2022-12-08T08:45:13.824Z,73.20
2022-12-08T08:47:39.959Z,72.95
2022-12-08T08:50:07.064Z,72.88
2022-12-08T08:52:33.434Z,73.05
2022-12-08T08:54:59.752Z,73.16
2022-12-08T08:57:26.306Z,72.68
2022-12-08T08:59:53.489Z,71.89
2022-12-08T09:02:19.724Z,71.97
2022-12-08T09:04:47.409Z,71.65
2022-12-08T09:07:14.368Z,72.30
2022-12-08T09:09:41.197Z,72.26
2022-12-08T09:12:08.189Z,71.75
2022-12-08T09:14:35.138Z,71.26
2022-12-08T09:17:01.281Z,70.74
2022-12-08T09:19:27.701Z,71.34
2022-12-08T09:21:53.864Z,71.20
2022-12-08T09:24:20.359Z,70.76
2022-12-08T09:26:46.706Z,71.21
2022-12-08T09:29:14.450Z,70.57
2022-12-08T09:31:41.133Z,70.15
2022-12-08T09:34:07.281Z,70.30
2022-12-08T09:36:33.388Z,69.46
2022-12-08T09:38:59.380Z,69.19
2022-12-08T09:41:40.397Z,69.55
2022-12-08T09:44:48.356Z,69.93
2022-12-08T09:47:28.384Z,69.36
2022-12-08T09:50:11.319Z,69.55
2022-12-08T09:52:43.057Z,69.05
2022-12-08T09:55:19.923Z,69.32
2022-12-08T09:57:57.576Z,69.96
2022-12-08T10:00:24.515Z,69.91
2022-12-08T10:02:50.661Z,69.46
2022-12-08T10:05:16.888Z,69.26
2022-12-08T10:08:11.771Z,69.15
2022-12-08T10:10:46.686Z,69.47
2022-12-08T10:13:27.351Z,69.61
2022-12-08T10:16:29.579Z,69.51
2022-12-08T10:19:24.572Z,69.88
2022-12-08T10:21:52.976Z,70.28
2022-12-08T10:24:40.174Z,70.19
2022-12-08T10:27:12.277Z,69.53
2022-12-08T10:29:40.054Z,69.72
2022-12-08T10:32:21.105Z,69.95
2022-12-08T10:35:10.265Z,70.05
2022-12-08T10:37:36.826Z,70.13
2022-12-08T10:40:06.098Z,70.06
2022-12-08T10:42:37.084Z,70.65
2022-12-08T10:45:09.317Z,70.65
2022-12-08T10:47:44.806Z,70.52
2022-12-08T10:50:28.061Z,70.57
2022-12-08T10:52:59.389Z,70.99
2022-12-08T10:55:26.455Z,70.26
2022-12-08T10:57:52.511Z,70.21
2022-12-08T11:00:25.591Z,70.33
2022-12-08T11:03:03.667Z,70.65
2022-12-08T11:05:36.097Z,70.36
2022-12-08T11:08:04.668Z,70.78
2022-12-08T11:10:43.737Z,71.08
2022-12-08T11:13:20.347Z,70.72
2022-12-08T11:15:46.579Z,70.97
2022-12-08T11:18:28.629Z,71.56
2022-12-08T11:20:59.445Z,71.87
2022-12-08T11:23:30.451Z,72.00
2022-12-08T11:26:02.762Z,71.72
2022-12-08T11:28:28.756Z,71.64
2022-12-08T11:31:01.805Z,71.84
2022-12-08T11:33:29.014Z,71.98
2022-12-08T11:36:12.345Z,72.06
2022-12-08T11:38:46.705Z,71.86
2022-12-08T11:41:18.831Z,71.55
2022-12-08T11:43:53.818Z,71.96
2022-12-08T11:46:36.493Z,71.79
2022-12-08T11:49:09.197Z,72.20
2022-12-08T11:51:48.232Z,72.14
2022-12-08T11:54:24.855Z,72.47
2022-12-08T11:57:01.836Z,72.49
2022-12-08T11:59:37.821Z,72.43
2022-12-08T12:02:06.167Z,72.42
2022-12-08T12:04:48.736Z,72.38
2022-12-08T12:07:36.699Z,72.83
2022-12-08T12:10:21.409Z,72.75
2022-12-08T12:13:31.740Z,72.64
2022-12-08T12:16:59.117Z,72.76
2022-12-08T12:19:27.149Z,72.76
2022-12-08T12:22:08.575Z,72.72
2022-12-08T12:24:38.648Z,73.24
2022-12-08T12:27:19.362Z,73.46
2022-12-08T12:29:55.449Z,73.25
2022-12-08T12:32:22.812Z,73.39
2022-12-08T12:34:56.157Z,73.27
2022-12-08T12:37:38.257Z,73.22
2022-12-08T12:40:26.793Z,73.09
2022-12-08T12:42:56.484Z,73.01
2022-12-08T12:45:33.360Z,72.62
2022-12-08T12:47:59.636Z,72.48
2022-12-08T12:50:32.271Z,72.56
2022-12-08T12:53:17.441Z,72.55
2022-12-08T12:55:56.342Z,72.02
2022-12-08T12:58:31.505Z,72.56
2022-12-08T13:01:10.047Z,72.59
2022-12-08T13:03:51.759Z,72.41
2022-12-08T13:06:31.838Z,72.33
2022-12-08T13:08:58.679Z,72.51
2022-12-08T13:11:26.440Z,72.67
2022-12-08T13:14:26.913Z,72.29
2022-12-08T13:16:57.065Z,72.55
2022-12-08T13:19:23.320Z,72.81
2022-12-08T13:21:49.950Z,72.87
2022-12-08T13:24:25.734Z,73.06
2022-12-08T13:27:04.038Z,73.21
2022-12-08T13:29:32.803Z,73.51
2022-12-08T13:32:02.697Z,73.68
2022-12-08T13:34:49.082Z,73.51
2022-12-08T13:37:26.311Z,73.56
2022-12-08T13:40:01.774Z,73.47
2022-12-08T13:42:41.798Z,73.49
2022-12-08T13:48:25.623Z,73.57
2022-12-08T13:57:15.799Z,74.06
2022-12-08T13:59:45.686Z,73.97
2022-12-08T14:02:32.684Z,74.04
2022-12-08T14:07:48.478Z,73.68
2022-12-08T14:10:27.863Z,74.01
2022-12-08T14:13:06.262Z,74.12
2022-12-08T14:15:37.845Z,74.09
2022-12-08T14:18:06.404Z,74.23
2022-12-08T14:20:51.969Z,74.15
2022-12-08T14:23:20.661Z,74.11
2022-12-08T14:25:47.759Z,73.88
2022-12-08T14:28:13.932Z,73.73
2022-12-08T14:30:40.701Z,73.86
2022-12-08T14:33:13.910Z,73.89
2022-12-08T14:35:40.510Z,73.85
2022-12-08T14:38:16.332Z,74.12
2022-12-08T14:40:45.241Z,74.38
2022-12-08T14:43:14.564Z,74.27
2022-12-08T14:45:40.803Z,74.28
2022-12-08T14:48:25.941Z,74.39
2022-12-08T14:51:13.686Z,74.29
2022-12-08T14:53:47.929Z,74.27
2022-12-08T14:56:24.272Z,74.30
2022-12-08T14:59:09.012Z,74.28
2022-12-08T15:01:35.860Z,74.41
2022-12-08T15:04:06.784Z,74.46
2022-12-08T15:06:33.005Z,74.53
2022-12-08T15:09:00.460Z,74.71
2022-12-08T15:11:32.865Z,74.73
2022-12-08T15:13:59.473Z,74.48
2022-12-08T15:16:26.013Z,74.55
2022-12-08T15:19:16.627Z,74.68
2022-12-08T15:21:45.625Z,74.66
2022-12-08T15:24:13.542Z,74.70
2022-12-08T15:26:53.543Z,74.89
2022-12-08T15:29:26.400Z,74.93
2022-12-08T15:31:55.493Z,74.86
2022-12-08T15:34:21.715Z,74.86
2022-12-08T15:36:51.094Z,74.68
2022-12-08T15:39:38.004Z,74.73
2022-12-08T15:42:11.181Z,74.94
2022-12-08T15:44:37.242Z,75.04
2022-12-08T15:47:04.061Z,75.13
2022-12-08T15:49:30.088Z,74.83
2022-12-08T15:52:06.499Z,74.66
2022-12-08T15:54:37.126Z,74.79
2022-12-08T15:57:19.285Z,74.93
2022-12-08T15:59:49.089Z,74.84
2022-12-08T16:02:22.206Z,74.98
2022-12-08T16:07:37.472Z,74.71
2022-12-08T16:10:08.004Z,74.92
2022-12-08T16:15:55.613Z,74.69
2022-12-08T16:18:31.096Z,74.65
2022-12-08T16:21:09.713Z,74.65
2022-12-08T16:23:45.027Z,74.87
2022-12-08T16:26:28.657Z,74.71
2022-12-08T16:29:04.475Z,74.48
2022-12-08T16:31:30.957Z,74.32
2022-12-08T16:33:57.492Z,74.69
2022-12-08T16:36:23.925Z,74.53
2022-12-08T16:38:49.974Z,74.70
2022-12-08T16:41:36.352Z,74.59
2022-12-08T16:44:05.288Z,74.68
2022-12-08T16:46:31.942Z,74.63
2022-12-08T16:48:58.417Z,74.43
2022-12-08T16:51:27.056Z,74.38
2022-12-08T16:53:56.547Z,74.47
2022-12-08T16:56:26.364Z,74.29
2022-12-08T16:58:57.216Z,74.17
2022-12-08T17:01:23.439Z,74.22
2022-12-08T17:04:14.432Z,74.17
2022-12-08T17:06:35.783Z,74.35
2022-12-08T17:09:01.809Z,74.78
2022-12-08T17:11:29.770Z,74.55
2022-12-08T17:13:56.272Z,74.47
2022-12-08T17:16:22.557Z,74.71
2022-12-08T17:18:48.881Z,74.82
2022-12-08T17:21:17.910Z,74.47
2022-12-08T17:23:44.566Z,74.35
2022-12-08T17:26:12.960Z,74.40
2022-12-08T17:28:59.608Z,74.40
2022-12-08T17:31:31.882Z,74.22
2022-12-08T17:34:03.605Z,74.40
2022-12-08T17:36:30.553Z,74.43
2022-12-08T17:39:00.651Z,74.25
2022-12-08T17:41:27.744Z,74.60
2022-12-08T17:43:54.651Z,74.55
2022-12-08T17:46:21.721Z,74.64
2022-12-08T17:48:47.995Z,74.54
2022-12-08T17:51:15.464Z,74.60
2022-12-08T17:53:42.421Z,74.68
2022-12-08T17:56:19.056Z,74.80
2022-12-08T17:58:48.548Z,74.69
2022-12-08T18:01:17.383Z,74.47
2022-12-08T18:03:43.879Z,74.46
2022-12-08T18:06:12.025Z,74.44
2022-12-08T18:08:38.912Z,74.58
2022-12-08T18:11:11.067Z,74.73
2022-12-08T18:13:37.332Z,74.47
2022-12-08T18:16:03.487Z,74.54
2022-12-08T18:18:29.554Z,74.56
2022-12-08T18:20:55.559Z,74.81
2022-12-08T18:23:21.876Z,74.56
2022-12-08T18:25:48.099Z,74.69
2022-12-08T18:28:15.012Z,74.47
2022-12-08T18:30:41.086Z,74.40
2022-12-08T18:33:07.666Z,74.39
2022-12-08T18:35:34.225Z,74.46
2022-12-08T18:38:00.995Z,74.33
2022-12-08T18:40:27.951Z,74.19
2022-12-08T18:42:54.494Z,73.89
2022-12-08T18:45:22.624Z,73.84
2022-12-08T18:47:50.723Z,73.93
2022-12-08T18:50:17.551Z,73.93
2022-12-08T18:52:45.239Z,73.85
2022-12-08T18:55:11.396Z,73.57
2022-12-08T18:57:41.937Z,73.42
2022-12-08T19:00:11.225Z,73.45
2022-12-08T19:02:38.640Z,73.63
2022-12-08T19:05:08.060Z,73.35
2022-12-08T19:07:35.067Z,73.16
2022-12-08T19:10:05.086Z,73.27
2022-12-08T19:12:31.573Z,73.33
2022-12-08T19:14:58.389Z,73.42
2022-12-08T19:17:25.371Z,73.42
2022-12-08T19:19:51.572Z,73.12
2022-12-08T19:22:18.139Z,73.43
2022-12-08T19:24:44.190Z,73.48
2022-12-08T19:27:10.211Z,73.59
2022-12-08T19:29:36.917Z,73.29
2022-12-08T19:32:04.613Z,73.17
2022-12-08T19:34:30.910Z,73.34
2022-12-08T19:36:56.994Z,73.54
2022-12-08T19:39:42.764Z,73.67
2022-12-08T19:42:36.079Z,74.02
2022-12-08T19:45:17.160Z,73.93
2022-12-08T19:47:43.328Z,73.92
2022-12-08T19:50:30.736Z,73.94
2022-12-08T19:52:57.858Z,74.05
2022-12-08T19:55:24.642Z,74.04
2022-12-08T19:57:52.184Z,74.20
2022-12-08T20:00:19.820Z,74.43
2022-12-08T20:02:46.848Z,74.67
2022-12-08T20:05:14.855Z,74.66
2022-12-08T20:07:42.599Z,74.79
2022-12-08T20:10:16.585Z,74.69
2022-12-08T20:12:42.697Z,74.96
2022-12-08T20:15:10.000Z,75.20
2022-12-08T20:17:38.577Z,75.15
2022-12-08T20:20:08.669Z,75.25
2022-12-08T20:22:35.664Z,75.55
2022-12-08T20:25:03.032Z,75.50
2022-12-08T20:27:29.354Z,75.33
2022-12-08T20:29:56.082Z,75.46
2022-12-08T20:32:22.316Z,75.39
2022-12-08T20:34:51.994Z,75.10
2022-12-08T20:37:19.245Z,75.29
2022-12-08T20:39:45.861Z,75.37
2022-12-08T20:42:13.334Z,75.37
2022-12-08T20:44:43.591Z,75.58
2022-12-08T20:47:11.494Z,75.74
2022-12-08T20:49:38.149Z,75.62
2022-12-08T20:52:05.357Z,75.83
2022-12-08T20:54:32.461Z,75.91
2022-12-08T20:56:59.045Z,76.07
2022-12-08T20:59:26.340Z,76.00
2022-12-08T21:01:53.620Z,76.13
2022-12-08T21:04:21.511Z,76.24
2022-12-08T21:06:48.993Z,76.32
2022-12-08T21:09:15.563Z,76.17
2022-12-08T21:11:41.858Z,76.34
2022-12-08T21:14:08.548Z,76.37
2022-12-08T21:16:34.880Z,76.08
2022-12-08T21:19:00.987Z,76.25
2022-12-08T21:21:27.144Z,76.47
2022-12-08T21:23:53.324Z,76.52
2022-12-08T21:26:22.642Z,76.27
2022-12-08T21:28:54.581Z,76.51
2022-12-08T21:31:21.550Z,76.45
2022-12-08T21:33:48.531Z,76.66
2022-12-08T21:36:17.816Z,76.60
2022-12-08T21:38:44.988Z,76.71
2022-12-08T21:41:37.623Z,76.97
2022-12-08T21:44:05.483Z,77.32
2022-12-08T21:46:32.006Z,77.34
2022-12-08T21:48:59.381Z,77.10
2022-12-08T21:51:25.768Z,77.06
2022-12-08T21:53:52.590Z,77.24
2022-12-08T21:56:19.403Z,77.28
2022-12-08T21:58:45.551Z,77.08
2022-12-08T22:01:13.315Z,77.10
2022-12-08T22:03:40.206Z,77.24
2022-12-08T22:06:13.483Z,77.37
2022-12-08T22:08:40.662Z,77.17
2022-12-08T22:11:07.712Z,77.25
2022-12-08T22:13:36.282Z,77.41
2022-12-08T22:16:05.941Z,77.54
2022-12-08T22:18:34.301Z,77.09
2022-12-08T22:21:01.210Z,77.32
2022-12-08T22:23:27.992Z,77.85
2022-12-08T22:26:01.335Z,78.05
2022-12-08T22:28:34.425Z,78.08
2022-12-08T22:31:01.104Z,77.89
2022-12-08T22:33:30.356Z,77.89
2022-12-08T22:36:08.061Z,77.76
2022-12-08T22:38:36.145Z,77.60
2022-12-08T22:41:04.884Z,77.61
2022-12-08T22:43:32.514Z,78.10
2022-12-08T22:45:58.921Z,78.22
2022-12-08T22:48:25.412Z,78.42
2022-12-08T22:50:57.903Z,78.35
2022-12-08T22:53:24.529Z,78.21
2022-12-08T22:55:51.359Z,78.12
2022-12-08T22:58:17.967Z,78.13
2022-12-08T23:00:43.981Z,78.16
2022-12-08T23:03:10.388Z,78.45
2022-12-08T23:05:39.267Z,78.44
2022-12-08T23:08:08.393Z,78.51
2022-12-08T23:10:34.956Z,78.93
2022-12-08T23:13:03.960Z,78.62
2022-12-08T23:15:31.090Z,78.56
2022-12-08T23:17:58.889Z,78.69
2022-12-08T23:20:25.762Z,78.50
2022-12-08T23:22:51.973Z,78.71
2022-12-08T23:25:19.148Z,78.61
2022-12-08T23:27:46.260Z,78.91
2022-12-08T23:30:13.668Z,78.69
2022-12-08T23:32:40.438Z,78.85
2022-12-08T23:35:07.641Z,78.71
2022-12-08T23:37:36.787Z,78.77
2022-12-08T23:40:04.944Z,78.54
2022-12-08T23:42:31.594Z,78.96
2022-12-08T23:44:57.927Z,78.65
2022-12-08T23:47:24.236Z,78.63
2022-12-08T23:49:51.143Z,78.85
2022-12-08T23:52:17.452Z,79.14
2022-12-08T23:54:44.464Z,79.17
2022-12-08T23:57:11.174Z,78.74
2022-12-08T23:59:37.771Z,78.83
